createdAt,value
2019-04-21T00:02:30.726Z,3.13
2019-04-21T00:05:24.667Z,6.20
2019-04-21T00:08:01.231Z,5.80
2019-04-21T00:10:38.275Z,3.80
2019-04-21T00:12:57.408Z,3.60
2019-04-21T00:15:27.680Z,3.23
2019-04-21T00:17:57.039Z,3.60
2019-04-21T00:20:35.493Z,3.00
2019-04-21T00:23:18.129Z,3.53
2019-04-21T00:25:49.484Z,3.17
2019-04-21T00:28:39.312Z,3.07
2019-04-21T00:31:08.361Z,3.77
2019-04-21T00:33:26.240Z,2.87
2019-04-21T00:35:59.938Z,3.63
2019-04-21T00:38:51.480Z,2.60
2019-04-21T00:41:26.105Z,3.23
2019-04-21T00:43:47.725Z,2.93
2019-04-21T00:46:17.485Z,3.17
2019-04-21T00:48:57.447Z,3.23
2019-04-21T00:51:43.628Z,2.97
2019-04-21T00:54:12.644Z,2.90
2019-04-21T00:56:41.277Z,3.23
2019-04-21T00:59:15.119Z,2.77
2019-04-21T01:01:46.176Z,3.10
2019-04-21T01:04:21.856Z,3.10
2019-04-21T01:06:48.043Z,3.17
2019-04-21T01:09:21.108Z,3.07
2019-04-21T01:11:55.370Z,2.93
2019-04-21T01:14:46.882Z,3.10
2019-04-21T01:17:04.061Z,3.00
2019-04-21T01:19:38.693Z,2.73
2019-04-21T01:21:52.414Z,2.90
2019-04-21T01:24:30.735Z,3.20
2019-04-21T01:27:06.381Z,2.77
2019-04-21T01:29:55.188Z,2.80
2019-04-21T01:32:24.222Z,3.10
2019-04-21T01:34:56.186Z,3.37
2019-04-21T01:37:38.505Z,3.33
2019-04-21T01:40:02.541Z,2.90
2019-04-21T01:42:33.540Z,2.87
2019-04-21T01:45:05.552Z,2.80
2019-04-21T01:47:40.572Z,2.80
2019-04-21T01:50:07.083Z,2.60
2019-04-21T01:53:11.341Z,3.07
2019-04-21T01:55:43.155Z,2.87
2019-04-21T01:58:19.682Z,2.83
2019-04-21T02:01:21.300Z,3.53
2019-04-21T02:03:57.088Z,3.33
2019-04-21T02:06:27.707Z,2.80
2019-04-21T02:08:57.998Z,3.17
2019-04-21T02:11:30.031Z,3.20
2019-04-21T02:14:09.937Z,3.17
2019-04-21T02:16:40.492Z,3.27
2019-04-21T02:19:11.443Z,3.10
2019-04-21T02:21:38.275Z,2.80
2019-04-21T02:24:20.881Z,3.20
2019-04-21T02:26:56.144Z,3.13
2019-04-21T02:29:26.911Z,3.63
2019-04-21T02:34:44.899Z,2.80
2019-04-21T02:37:28.628Z,3.00
2019-04-21T02:39:51.307Z,3.00
2019-04-21T02:47:48.428Z,3.57
2019-04-21T02:50:19.116Z,3.30
2019-04-21T02:52:55.527Z,2.93
2019-04-21T02:55:14.746Z,3.33
2019-04-21T02:57:59.376Z,2.67
2019-04-21T03:00:36.835Z,2.80
2019-04-21T03:03:29.024Z,3.50
2019-04-21T03:06:08.312Z,2.90
2019-04-21T03:13:48.634Z,3.10
2019-04-21T03:18:50.736Z,3.30
2019-04-21T03:21:22.306Z,3.20
2019-04-21T03:23:54.190Z,3.10
2019-04-21T03:31:49.548Z,3.40
2019-04-21T03:36:52.214Z,3.50
2019-04-21T03:39:21.160Z,3.63
2019-04-21T03:42:00.114Z,3.20
2019-04-21T03:44:22.844Z,3.17
2019-04-21T03:47:09.232Z,3.37
2019-04-21T03:52:03.292Z,3.70
2019-04-21T03:54:37.588Z,3.50
2019-04-21T03:57:20.000Z,3.43
2019-04-21T03:59:45.330Z,3.80
2019-04-21T04:02:24.391Z,3.63
2019-04-21T04:05:21.488Z,3.30
2019-04-21T04:08:38.325Z,3.60
2019-04-21T04:10:26.446Z,3.57
2019-04-21T04:12:57.603Z,3.33
2019-04-21T04:15:39.466Z,3.87
2019-04-21T04:17:54.259Z,4.23
2019-04-21T04:20:34.866Z,3.87
2019-04-21T04:25:33.504Z,4.00
2019-04-21T04:28:27.610Z,4.63
2019-04-21T04:33:20.747Z,4.17
2019-04-21T04:38:34.108Z,4.20
2019-04-21T04:41:09.715Z,4.30
2019-04-21T04:43:54.485Z,4.60
2019-04-21T04:46:07.193Z,4.13
2019-04-21T04:48:43.312Z,4.50
2019-04-21T04:51:17.047Z,4.60
2019-04-21T04:53:44.361Z,4.50
2019-04-21T04:56:25.334Z,4.30
2019-04-21T04:59:20.220Z,4.10
2019-04-21T05:01:34.464Z,4.50
2019-04-21T05:04:20.868Z,4.60
2019-04-21T05:06:42.627Z,5.03
2019-04-21T05:14:13.340Z,4.53
2019-04-21T05:16:46.909Z,4.83
2019-04-21T05:19:16.123Z,4.67
2019-04-21T05:21:47.495Z,3.67
2019-04-21T05:24:09.716Z,4.10
2019-04-21T05:26:44.804Z,4.27
2019-04-21T05:29:10.306Z,4.13
2019-04-21T05:32:12.962Z,4.30
2019-04-21T05:34:30.478Z,4.23
2019-04-21T05:37:28.876Z,4.47
2019-04-21T05:40:00.651Z,4.20
2019-04-21T05:42:35.312Z,5.20
2019-04-21T05:45:18.077Z,4.13
2019-04-21T05:48:19.227Z,4.70
2019-04-21T05:50:34.954Z,4.43
2019-04-21T05:53:20.897Z,4.77
2019-04-21T05:55:52.916Z,4.77
2019-04-21T05:58:21.421Z,4.40
2019-04-21T06:06:13.766Z,4.57
2019-04-21T06:08:55.974Z,5.23
2019-04-21T06:11:37.423Z,10.07
2019-04-21T06:14:14.363Z,5.50
2019-04-21T06:16:58.760Z,5.37
2019-04-21T06:19:30.952Z,5.53
2019-04-21T06:21:57.203Z,5.63
2019-04-21T06:24:54.232Z,5.47
2019-04-21T06:27:22.453Z,6.07
2019-04-21T06:29:55.787Z,5.83
2019-04-21T06:32:47.084Z,5.67
2019-04-21T06:35:23.670Z,5.07
2019-04-21T06:37:43.615Z,4.90
2019-04-21T06:40:30.409Z,4.90
2019-04-21T06:43:11.635Z,4.77
2019-04-21T06:45:41.262Z,4.63
2019-04-21T06:48:18.667Z,4.60
2019-04-21T06:50:52.789Z,3.97
2019-04-21T06:53:36.004Z,5.20
2019-04-21T06:55:51.660Z,4.57
2019-04-21T06:58:26.283Z,4.57
2019-04-21T07:01:07.227Z,4.70
2019-04-21T07:03:42.270Z,4.63
2019-04-21T07:06:18.340Z,4.90
2019-04-21T07:08:53.260Z,4.20
2019-04-21T07:11:14.989Z,4.67
2019-04-21T07:14:03.104Z,4.83
2019-04-21T07:16:25.438Z,5.30
2019-04-21T07:19:05.890Z,4.80
2019-04-21T07:21:29.751Z,5.20
2019-04-21T07:24:05.785Z,4.63
2019-04-21T07:26:36.689Z,4.33
2019-04-21T07:29:14.387Z,4.67
2019-04-21T07:34:24.709Z,5.00
2019-04-21T07:36:56.024Z,4.57
2019-04-21T07:39:22.598Z,4.77
2019-04-21T07:42:00.872Z,4.67
2019-04-21T07:44:31.864Z,5.70
2019-04-21T07:47:05.034Z,5.10
2019-04-21T07:49:58.662Z,4.97
2019-04-21T07:52:49.353Z,5.70
2019-04-21T07:57:45.606Z,4.63
2019-04-21T08:02:54.502Z,4.47
2019-04-21T08:05:28.121Z,4.70
2019-04-21T08:07:55.937Z,4.83
2019-04-21T08:10:27.313Z,4.70
2019-04-21T08:13:02.762Z,5.07
2019-04-21T08:15:49.079Z,4.77
2019-04-21T08:18:25.499Z,4.60
2019-04-21T08:20:49.192Z,4.77
2019-04-21T08:23:29.109Z,5.20
2019-04-21T08:26:06.454Z,5.10
2019-04-21T08:28:32.084Z,5.67
2019-04-21T08:31:03.180Z,4.93
2019-04-21T08:33:38.676Z,5.20
2019-04-21T08:36:17.717Z,4.87
2019-04-21T08:38:45.181Z,4.77
2019-04-21T08:41:13.308Z,4.90
2019-04-21T08:44:05.187Z,4.73
2019-04-21T08:46:25.869Z,4.47
2019-04-21T08:49:03.757Z,4.23
2019-04-21T08:51:33.513Z,4.57
2019-04-21T08:54:16.996Z,4.47
2019-04-21T08:57:04.060Z,4.23
2019-04-21T08:59:58.637Z,4.37
2019-04-21T09:02:35.005Z,4.70
2019-04-21T09:05:04.793Z,4.03
2019-04-21T09:07:49.321Z,4.00
2019-04-21T09:10:09.312Z,4.60
2019-04-21T09:12:48.044Z,3.33
2019-04-21T09:15:13.854Z,4.23
2019-04-21T09:17:48.931Z,4.13
2019-04-21T09:23:01.179Z,3.77
2019-04-21T09:28:04.872Z,3.67
2019-04-21T09:30:19.785Z,4.37
2019-04-21T09:32:54.504Z,3.97
2019-04-21T09:35:24.303Z,3.70
2019-04-21T09:38:02.130Z,3.77
2019-04-21T09:40:32.700Z,4.30
2019-04-21T09:43:02.635Z,4.70
2019-04-21T09:45:30.802Z,4.10
2019-04-21T09:48:07.506Z,4.23
2019-04-21T09:50:34.509Z,4.10
2019-04-21T09:53:13.907Z,3.80
2019-04-21T09:55:48.171Z,4.07
2019-04-21T09:58:21.872Z,3.77
2019-04-21T10:00:55.333Z,4.80
2019-04-21T10:03:17.988Z,4.40
2019-04-21T10:05:49.790Z,4.60
2019-04-21T10:08:19.652Z,4.10
2019-04-21T10:10:49.446Z,4.60
2019-04-21T10:13:27.476Z,4.10
2019-04-21T10:16:17.459Z,3.80
2019-04-21T10:19:00.357Z,3.50
2019-04-21T10:21:30.130Z,4.07
2019-04-21T10:23:59.983Z,3.60
2019-04-21T10:26:30.545Z,3.87
2019-04-21T10:29:09.333Z,3.70
2019-04-21T10:31:38.732Z,4.30
2019-04-21T10:34:14.475Z,4.37
2019-04-21T10:36:44.890Z,3.33
2019-04-21T10:39:17.817Z,3.60
2019-04-21T10:41:47.845Z,3.70
2019-04-21T10:44:19.056Z,3.63
2019-04-21T10:46:52.558Z,3.57
2019-04-21T10:49:22.712Z,3.13
2019-04-21T10:51:53.124Z,3.57
2019-04-21T10:54:24.185Z,3.20
2019-04-21T10:56:54.683Z,3.40
2019-04-21T10:59:26.793Z,3.23
2019-04-21T11:01:56.894Z,3.00
2019-04-21T11:04:33.635Z,2.90
2019-04-21T11:07:08.451Z,3.07
2019-04-21T11:09:36.096Z,2.97
2019-04-21T11:12:10.155Z,3.73
2019-04-21T11:14:45.478Z,3.17
2019-04-21T11:17:16.436Z,3.17
2019-04-21T11:19:48.810Z,3.10
2019-04-21T11:22:18.948Z,2.90
2019-04-21T11:24:51.126Z,3.13
2019-04-21T11:27:22.911Z,2.90
2019-04-21T11:29:53.615Z,2.70
2019-04-21T11:32:23.571Z,3.43
2019-04-21T11:34:54.916Z,2.97
2019-04-21T11:37:30.324Z,2.87
2019-04-21T11:40:08.546Z,3.10
2019-04-21T11:42:39.647Z,3.00
2019-04-21T11:45:12.499Z,2.63
2019-04-21T11:48:02.426Z,3.00
2019-04-21T11:50:37.105Z,2.50
2019-04-21T11:53:12.688Z,2.40
2019-04-21T11:55:43.550Z,2.93
2019-04-21T11:58:36.072Z,2.70
2019-04-21T12:01:07.647Z,2.90
2019-04-21T12:03:37.796Z,2.77
2019-04-21T12:06:17.421Z,3.00
2019-04-21T12:08:52.927Z,3.13
2019-04-21T12:11:27.265Z,3.30
2019-04-21T12:14:03.774Z,2.90
2019-04-21T12:16:34.978Z,3.57
2019-04-21T12:19:05.216Z,3.03
2019-04-21T12:21:51.356Z,3.30
2019-04-21T12:24:09.290Z,2.97
2019-04-21T12:26:40.158Z,3.27
2019-04-21T12:29:11.919Z,2.57
2019-04-21T12:32:16.014Z,2.70
2019-04-21T12:34:52.250Z,2.70
2019-04-21T12:37:19.262Z,3.10
2019-04-21T12:39:50.476Z,2.53
2019-04-21T12:42:24.787Z,3.13
2019-04-21T12:44:57.250Z,2.77
2019-04-21T12:47:27.940Z,2.60
2019-04-21T12:50:07.006Z,3.10
2019-04-21T12:52:39.740Z,3.53
2019-04-21T12:55:09.870Z,3.10
2019-04-21T12:57:43.602Z,2.93
2019-04-21T13:00:18.560Z,2.73
2019-04-21T13:02:50.032Z,2.90
2019-04-21T13:05:22.000Z,2.90
2019-04-21T13:07:53.265Z,2.80
2019-04-21T13:10:30.702Z,2.97
2019-04-21T13:13:01.808Z,2.40
2019-04-21T13:15:31.773Z,2.90
2019-04-21T13:18:02.596Z,2.97
2019-04-21T13:20:35.963Z,2.77
2019-04-21T13:23:06.156Z,2.70
2019-04-21T13:25:36.155Z,2.77
2019-04-21T13:28:10.379Z,2.20
2019-04-21T13:30:40.402Z,2.10
2019-04-21T13:33:11.197Z,2.33
2019-04-21T13:35:41.350Z,2.57
2019-04-21T13:38:20.647Z,2.17
2019-04-21T13:41:23.092Z,2.53
2019-04-21T13:43:39.244Z,2.00
2019-04-21T13:46:17.582Z,2.70
2019-04-21T13:48:46.525Z,2.30
2019-04-21T13:51:22.897Z,2.30
2019-04-21T13:53:53.636Z,2.47
2019-04-21T13:56:24.758Z,2.40
2019-04-21T13:58:55.961Z,2.20
2019-04-21T14:01:27.549Z,2.47
2019-04-21T14:03:57.824Z,2.47
2019-04-21T14:06:30.385Z,2.07
2019-04-21T14:09:01.216Z,2.20
2019-04-21T14:11:33.255Z,2.63
2019-04-21T14:14:20.585Z,2.57
2019-04-21T14:16:56.579Z,3.00
2019-04-21T14:19:27.791Z,2.43
2019-04-21T14:21:59.152Z,2.37
2019-04-21T14:24:35.020Z,2.20
2019-04-21T14:27:06.145Z,2.17
2019-04-21T14:29:39.574Z,2.47
2019-04-21T14:32:10.597Z,2.30
2019-04-21T14:34:50.217Z,2.63
2019-04-21T14:37:30.841Z,2.67
2019-04-21T14:40:07.415Z,2.10
2019-04-21T14:42:56.205Z,2.23
2019-04-21T14:45:36.844Z,2.50
2019-04-21T14:48:27.370Z,2.20
2019-04-21T14:51:20.830Z,2.10
2019-04-21T14:54:30.961Z,2.03
2019-04-21T14:57:03.486Z,2.17
2019-04-21T14:59:35.417Z,2.17
2019-04-21T15:02:06.023Z,2.10
2019-04-21T15:04:39.871Z,2.10
2019-04-21T15:07:10.443Z,2.37
2019-04-21T15:09:42.540Z,2.10
2019-04-21T15:12:16.280Z,1.93
2019-04-21T15:14:49.852Z,2.30
2019-04-21T15:17:22.457Z,1.80
2019-04-21T15:19:59.708Z,1.80
2019-04-21T15:22:30.455Z,1.77
2019-04-21T15:25:03.403Z,2.10
2019-04-21T15:27:34.891Z,1.90
2019-04-21T15:30:07.027Z,2.27
2019-04-21T15:32:38.029Z,2.47
2019-04-21T15:35:09.178Z,1.83
2019-04-21T15:37:41.981Z,2.10
2019-04-21T15:40:22.592Z,2.20
2019-04-21T15:42:44.620Z,2.30
2019-04-21T15:45:14.640Z,2.40
2019-04-21T15:47:49.808Z,2.10
2019-04-21T15:50:30.249Z,1.63
2019-04-21T15:53:05.612Z,2.10
2019-04-21T15:55:52.507Z,2.13
2019-04-21T15:58:42.900Z,1.87
2019-04-21T16:01:22.872Z,1.80
2019-04-21T16:04:18.871Z,1.93
2019-04-21T16:06:55.655Z,1.90
2019-04-21T16:09:29.375Z,2.10
2019-04-21T16:12:00.042Z,2.20
2019-04-21T16:14:32.452Z,1.67
2019-04-21T16:17:03.340Z,1.80
2019-04-21T16:19:39.173Z,1.70
2019-04-21T16:22:26.890Z,1.77
2019-04-21T16:25:05.245Z,1.83
2019-04-21T16:27:39.448Z,1.73
2019-04-21T16:30:12.493Z,1.40
2019-04-21T16:32:50.311Z,1.70
2019-04-21T16:35:21.724Z,1.90
2019-04-21T16:37:57.267Z,1.77
2019-04-21T16:40:41.346Z,1.63
2019-04-21T16:43:00.754Z,1.80
2019-04-21T16:45:30.911Z,1.63
2019-04-21T16:48:05.323Z,1.90
2019-04-21T16:50:41.510Z,1.83
2019-04-21T16:53:50.128Z,1.80
2019-04-21T16:56:47.898Z,1.90
2019-04-21T16:59:26.430Z,1.63
2019-04-21T17:12:16.500Z,1.40
2019-04-21T17:15:10.826Z,2.17
2019-04-21T17:17:51.411Z,1.93
2019-04-21T17:20:19.320Z,2.20
2019-04-21T17:22:42.029Z,2.03
2019-04-21T17:25:21.523Z,2.20
2019-04-21T17:27:51.390Z,2.10
2019-04-21T17:30:26.435Z,3.60
2019-04-21T17:32:59.506Z,2.20
2019-04-21T17:35:33.221Z,2.20
2019-04-21T17:38:08.141Z,2.57
2019-04-21T17:40:42.015Z,2.27
2019-04-21T17:43:14.684Z,2.27
2019-04-21T17:45:53.114Z,2.00
2019-04-21T17:48:27.478Z,1.90
2019-04-21T17:51:23.442Z,2.77
2019-04-21T17:54:02.405Z,1.87
2019-04-21T17:56:59.860Z,1.73
2019-04-21T17:59:41.454Z,1.97
2019-04-21T18:01:59.268Z,1.90
2019-04-21T18:04:30.659Z,2.13
2019-04-21T18:07:45.394Z,2.40
2019-04-21T18:10:12.596Z,2.70
2019-04-21T18:12:43.589Z,2.17
2019-04-21T18:15:21.851Z,1.97
2019-04-21T18:17:36.545Z,2.10
2019-04-21T18:20:13.842Z,1.70
2019-04-21T18:23:31.405Z,1.90
2019-04-21T18:25:57.890Z,2.20
2019-04-21T18:28:21.021Z,2.20
2019-04-21T18:30:56.587Z,2.30
2019-04-21T18:33:33.868Z,1.87
2019-04-21T18:36:22.620Z,2.00
2019-04-21T18:39:10.280Z,2.00
2019-04-21T18:41:32.144Z,1.80
2019-04-21T18:47:19.636Z,2.27
2019-04-21T18:49:42.724Z,1.90
2019-04-21T18:52:40.625Z,2.23
2019-04-21T18:55:09.618Z,2.00
2019-04-21T18:57:54.954Z,1.93
2019-04-21T19:00:30.856Z,2.20
2019-04-21T19:02:58.349Z,1.97
2019-04-21T19:05:29.804Z,2.03
2019-04-21T19:08:19.063Z,2.43
2019-04-21T19:10:55.371Z,1.87
2019-04-21T19:13:41.012Z,2.10
2019-04-21T19:16:22.598Z,1.97
2019-04-21T19:18:56.654Z,2.07
2019-04-21T19:21:11.128Z,1.97
2019-04-21T19:24:01.847Z,2.13
2019-04-21T19:26:21.719Z,2.03
2019-04-21T19:28:54.780Z,2.00
2019-04-21T19:31:26.167Z,2.20
2019-04-21T19:33:45.544Z,2.10
2019-04-21T19:36:05.564Z,2.30
2019-04-21T19:38:49.070Z,2.20
2019-04-21T19:41:28.189Z,2.13
2019-04-21T19:44:03.643Z,1.97
2019-04-21T19:46:40.926Z,2.30
2019-04-21T19:49:27.819Z,2.77
2019-04-21T19:51:43.654Z,2.30
2019-04-21T19:54:15.483Z,2.90
2019-04-21T19:56:51.397Z,3.13
2019-04-21T19:59:22.069Z,3.37
2019-04-21T20:01:48.336Z,3.47
2019-04-21T20:04:31.523Z,3.73
2019-04-21T20:07:17.489Z,3.33
2019-04-21T20:10:11.639Z,3.30
2019-04-21T20:12:39.935Z,2.97
2019-04-21T20:15:19.010Z,3.00
2019-04-21T20:17:42.441Z,2.50
2019-04-21T20:19:58.234Z,2.70
2019-04-21T20:22:38.287Z,3.00
2019-04-21T20:25:25.671Z,2.77
2019-04-21T20:28:04.978Z,2.53
2019-04-21T20:30:47.229Z,2.90
2019-04-21T20:33:43.065Z,3.27
2019-04-21T20:36:06.229Z,2.93
2019-04-21T20:38:19.350Z,3.10
2019-04-21T20:40:51.024Z,2.70
2019-04-21T20:46:08.027Z,2.80
2019-04-21T20:48:42.878Z,2.80
2019-04-21T20:51:22.247Z,3.30
2019-04-21T20:54:00.538Z,3.00
2019-04-21T20:56:41.025Z,2.87
2019-04-21T20:59:19.518Z,2.97
2019-04-21T21:02:01.749Z,3.10
2019-04-21T21:04:30.066Z,3.00
2019-04-21T21:07:16.274Z,3.17
2019-04-21T21:10:01.667Z,3.13
2019-04-21T21:12:58.970Z,2.90
2019-04-21T21:15:25.220Z,2.90
2019-04-21T21:18:35.591Z,2.43
2019-04-21T21:20:49.636Z,3.00
2019-04-21T21:23:12.850Z,3.07
2019-04-21T21:25:55.088Z,2.87
2019-04-21T21:28:24.586Z,2.70
2019-04-21T21:31:25.200Z,2.67
2019-04-21T21:33:52.663Z,2.73
2019-04-21T21:36:21.019Z,2.40
2019-04-21T21:38:54.574Z,2.77
2019-04-21T21:41:17.908Z,2.83
2019-04-21T21:44:05.860Z,2.60
2019-04-21T21:46:49.914Z,2.63
2019-04-21T21:49:25.071Z,2.10
2019-04-21T21:51:47.227Z,2.77
2019-04-21T21:54:13.976Z,2.37
2019-04-21T21:56:44.702Z,2.90
2019-04-21T21:59:22.897Z,2.40
2019-04-21T22:01:59.858Z,2.13
2019-04-21T22:04:35.234Z,2.70
2019-04-21T22:07:40.453Z,2.67
2019-04-21T22:10:10.435Z,2.47
2019-04-21T22:13:08.574Z,2.53
2019-04-21T22:15:35.590Z,2.67
2019-04-21T22:18:27.347Z,2.87
2019-04-21T22:20:57.477Z,2.57
2019-04-21T22:23:45.599Z,2.60
2019-04-21T22:26:05.372Z,2.70
2019-04-21T22:31:34.147Z,2.80
2019-04-21T22:34:07.535Z,2.60
2019-04-21T22:37:13.469Z,2.23
2019-04-21T22:39:44.902Z,3.10
2019-04-21T22:42:12.102Z,2.93
2019-04-21T22:44:40.583Z,2.63
2019-04-21T22:47:17.223Z,2.80
2019-04-21T22:49:52.695Z,2.53
2019-04-21T22:52:29.954Z,3.00
2019-04-21T22:55:08.233Z,2.50
2019-04-21T22:58:05.405Z,2.73
2019-04-21T23:00:31.292Z,2.50
2019-04-21T23:03:09.880Z,2.90
2019-04-21T23:05:41.719Z,2.40
2019-04-21T23:08:17.155Z,2.50
2019-04-21T23:14:04.002Z,2.53
2019-04-21T23:16:36.278Z,2.70
2019-04-21T23:19:26.757Z,2.47
2019-04-21T23:22:04.093Z,2.80
2019-04-21T23:25:15.447Z,2.47
2019-04-21T23:27:55.128Z,2.37
2019-04-21T23:30:56.716Z,2.47
2019-04-21T23:33:12.847Z,2.53
2019-04-21T23:35:49.204Z,2.80
2019-04-21T23:38:27.833Z,2.70
2019-04-21T23:40:54.936Z,2.57
2019-04-21T23:43:33.537Z,2.40
2019-04-21T23:46:11.625Z,2.93
2019-04-21T23:49:07.469Z,3.30
2019-04-21T23:51:36.163Z,2.40
2019-04-21T23:53:59.532Z,2.87
2019-04-21T23:56:36.836Z,3.00
2019-04-21T23:59:24.828Z,2.50
